sensor_id;sensor_type;location;lat;lon;timestamp;P1;P2;P0
75960;PMS7003;64644;48.914;2.254;2023-02-22T00:00:10;74.25;57.25;35.00
75960;PMS7003;64644;48.914;2.254;2023-02-22T00:02:47;79.75;60.25;38.50
75960;PMS7003;64644;48.914;2.254;2023-02-22T00:05:14;78.00;60.50;39.00
75960;PMS7003;64644;48.914;2.254;2023-02-22T00:07:43;75.50;61.25;39.75
75960;PMS7003;64644;48.914;2.254;2023-02-22T00:10:12;79.00;60.00;38.25
75960;PMS7003;64644;48.914;2.254;2023-02-22T00:12:44;73.75;59.00;40.00
75960;PMS7003;64644;48.914;2.254;2023-02-22T00:15:14;74.00;60.00;39.50
75960;PMS7003;64644;48.914;2.254;2023-02-22T00:17:41;78.75;63.00;38.25
75960;PMS7003;64644;48.914;2.254;2023-02-22T00:20:08;77.50;61.00;38.25
75960;PMS7003;64644;48.914;2.254;2023-02-22T00:22:38;77.75;59.75;39.00
75960;PMS7003;64644;48.914;2.254;2023-02-22T00:25:08;77.25;59.00;38.75
75960;PMS7003;64644;48.914;2.254;2023-02-22T00:27:34;78.25;60.00;39.75
75960;PMS7003;64644;48.914;2.254;2023-02-22T00:30:03;75.25;60.00;41.00
75960;PMS7003;64644;48.914;2.254;2023-02-22T00:32:29;77.75;59.50;38.25
75960;PMS7003;64644;48.914;2.254;2023-02-22T00:34:55;79.75;62.00;39.50
75960;PMS7003;64644;48.914;2.254;2023-02-22T00:37:20;77.75;61.25;39.25
75960;PMS7003;64644;48.914;2.254;2023-02-22T00:39:48;85.00;66.00;42.50
75960;PMS7003;64644;48.914;2.254;2023-02-22T00:42:15;86.00;65.25;41.00
75960;PMS7003;64644;48.914;2.254;2023-02-22T00:44:42;83.75;65.50;43.00
75960;PMS7003;64644;48.914;2.254;2023-02-22T00:47:07;78.00;61.25;38.25
75960;PMS7003;64644;48.914;2.254;2023-02-22T00:49:33;79.50;64.25;41.50
75960;PMS7003;64644;48.914;2.254;2023-02-22T00:52:00;80.00;64.50;41.00
75960;PMS7003;64644;48.914;2.254;2023-02-22T00:54:25;75.75;59.00;40.00
75960;PMS7003;64644;48.914;2.254;2023-02-22T00:56:51;80.25;64.25;40.00
75960;PMS7003;64644;48.914;2.254;2023-02-22T00:59:16;86.50;67.50;42.75
75960;PMS7003;64644;48.914;2.254;2023-02-22T01:01:42;90.50;66.25;42.50
75960;PMS7003;64644;48.914;2.254;2023-02-22T01:04:08;88.25;67.50;42.25
75960;PMS7003;64644;48.914;2.254;2023-02-22T01:06:33;78.75;61.25;41.75
75960;PMS7003;64644;48.914;2.254;2023-02-22T01:09:00;81.00;64.75;41.50
75960;PMS7003;64644;48.914;2.254;2023-02-22T01:11:26;79.75;61.50;41.50
75960;PMS7003;64644;48.914;2.254;2023-02-22T01:13:52;85.50;65.25;42.25
75960;PMS7003;64644;48.914;2.254;2023-02-22T01:16:19;84.50;66.25;42.00
75960;PMS7003;64644;48.914;2.254;2023-02-22T01:18:45;85.25;66.00;42.00
75960;PMS7003;64644;48.914;2.254;2023-02-22T01:21:11;84.75;66.50;44.00
75960;PMS7003;64644;48.914;2.254;2023-02-22T01:23:36;80.50;62.75;41.25
75960;PMS7003;64644;48.914;2.254;2023-02-22T01:26:01;90.25;69.00;43.00
75960;PMS7003;64644;48.914;2.254;2023-02-22T01:28:29;77.00;60.75;41.75
75960;PMS7003;64644;48.914;2.254;2023-02-22T01:30:58;83.50;66.00;44.25
75960;PMS7003;64644;48.914;2.254;2023-02-22T01:33:23;83.75;66.50;42.25
75960;PMS7003;64644;48.914;2.254;2023-02-22T01:35:49;79.25;64.75;42.00
75960;PMS7003;64644;48.914;2.254;2023-02-22T01:38:15;84.25;64.00;42.25
75960;PMS7003;64644;48.914;2.254;2023-02-22T01:40:41;88.75;68.50;44.75
75960;PMS7003;64644;48.914;2.254;2023-02-22T01:53:36;85.25;67.25;44.00
75960;PMS7003;64644;48.914;2.254;2023-02-22T01:56:05;78.00;61.25;41.25
75960;PMS7003;64644;48.914;2.254;2023-02-22T01:58:32;85.00;65.50;44.00
75960;PMS7003;64644;48.914;2.254;2023-02-22T02:01:02;87.75;69.00;44.75
75960;PMS7003;64644;48.914;2.254;2023-02-22T02:03:29;89.75;70.25;44.75
75960;PMS7003;64644;48.914;2.254;2023-02-22T02:05:58;85.00;64.75;42.50
75960;PMS7003;64644;48.914;2.254;2023-02-22T02:11:23;88.25;68.00;43.75
75960;PMS7003;64644;48.914;2.254;2023-02-22T02:13:53;88.00;71.00;43.00
75960;PMS7003;64644;48.914;2.254;2023-02-22T02:16:21;84.00;67.00;44.25
75960;PMS7003;64644;48.914;2.254;2023-02-22T02:18:49;88.00;70.50;44.50
75960;PMS7003;64644;48.914;2.254;2023-02-22T02:27:10;88.25;68.00;44.00
75960;PMS7003;64644;48.914;2.254;2023-02-22T02:35:56;85.00;68.25;43.50
75960;PMS7003;64644;48.914;2.254;2023-02-22T02:38:37;91.75;75.00;45.00
75960;PMS7003;64644;48.914;2.254;2023-02-22T02:41:23;87.50;71.25;44.50
75960;PMS7003;64644;48.914;2.254;2023-02-22T02:44:12;92.00;70.25;45.00
75960;PMS7003;64644;48.914;2.254;2023-02-22T02:49:19;85.25;67.00;45.25
75960;PMS7003;64644;48.914;2.254;2023-02-22T02:51:49;89.00;70.00;44.50
75960;PMS7003;64644;48.914;2.254;2023-02-22T02:54:18;87.75;68.00;44.25
75960;PMS7003;64644;48.914;2.254;2023-02-22T02:56:45;86.50;67.50;44.00
75960;PMS7003;64644;48.914;2.254;2023-02-22T02:59:22;87.25;68.00;45.50
75960;PMS7003;64644;48.914;2.254;2023-02-22T03:04:50;88.75;69.75;45.25
75960;PMS7003;64644;48.914;2.254;2023-02-22T03:08:01;85.50;67.50;43.50
75960;PMS7003;64644;48.914;2.254;2023-02-22T03:13:22;84.75;67.00;42.25
75960;PMS7003;64644;48.914;2.254;2023-02-22T03:16:11;92.25;74.50;45.25
75960;PMS7003;64644;48.914;2.254;2023-02-22T03:21:46;84.25;65.00;40.50
75960;PMS7003;64644;48.914;2.254;2023-02-22T03:27:18;80.25;63.75;41.00
75960;PMS7003;64644;48.914;2.254;2023-02-22T03:29:52;86.50;66.75;43.00
75960;PMS7003;64644;48.914;2.254;2023-02-22T03:32:22;80.50;64.25;43.00
75960;PMS7003;64644;48.914;2.254;2023-02-22T03:34:54;75.25;61.00;39.50
75960;PMS7003;64644;48.914;2.254;2023-02-22T03:37:24;69.25;57.25;37.25
75960;PMS7003;64644;48.914;2.254;2023-02-22T03:39:58;69.25;57.00;36.25
75960;PMS7003;64644;48.914;2.254;2023-02-22T03:42:27;69.75;56.00;36.50
75960;PMS7003;64644;48.914;2.254;2023-02-22T03:44:56;67.75;53.50;32.25
75960;PMS7003;64644;48.914;2.254;2023-02-22T03:47:32;64.50;52.00;33.75
75960;PMS7003;64644;48.914;2.254;2023-02-22T03:50:06;60.00;47.75;32.25
75960;PMS7003;64644;48.914;2.254;2023-02-22T03:52:39;51.25;42.00;28.75
75960;PMS7003;64644;48.914;2.254;2023-02-22T03:55:07;47.00;39.00;26.25
75960;PMS7003;64644;48.914;2.254;2023-02-22T03:57:36;51.50;41.75;28.00
75960;PMS7003;64644;48.914;2.254;2023-02-22T04:00:09;56.25;47.25;30.50
75960;PMS7003;64644;48.914;2.254;2023-02-22T04:02:39;47.50;43.00;28.50
75960;PMS7003;64644;48.914;2.254;2023-02-22T04:05:05;48.75;41.75;28.00
75960;PMS7003;64644;48.914;2.254;2023-02-22T04:07:31;59.00;49.75;32.00
75960;PMS7003;64644;48.914;2.254;2023-02-22T04:09:56;55.00;44.00;28.25
75960;PMS7003;64644;48.914;2.254;2023-02-22T04:12:21;48.50;42.25;28.00
75960;PMS7003;64644;48.914;2.254;2023-02-22T04:14:47;48.75;41.50;29.25
75960;PMS7003;64644;48.914;2.254;2023-02-22T04:17:12;54.75;45.50;29.25
75960;PMS7003;64644;48.914;2.254;2023-02-22T04:19:38;51.00;43.00;28.25
75960;PMS7003;64644;48.914;2.254;2023-02-22T04:22:03;48.25;42.25;29.00
75960;PMS7003;64644;48.914;2.254;2023-02-22T04:24:29;47.25;41.25;27.75
75960;PMS7003;64644;48.914;2.254;2023-02-22T04:26:54;54.50;43.00;29.25
75960;PMS7003;64644;48.914;2.254;2023-02-22T04:29:20;45.00;41.50;28.00
75960;PMS7003;64644;48.914;2.254;2023-02-22T04:31:45;48.25;41.00;28.00
75960;PMS7003;64644;48.914;2.254;2023-02-22T04:34:11;48.00;41.75;28.50
75960;PMS7003;64644;48.914;2.254;2023-02-22T04:36:36;57.25;45.00;29.25
75960;PMS7003;64644;48.914;2.254;2023-02-22T04:39:02;49.50;43.00;28.00
75960;PMS7003;64644;48.914;2.254;2023-02-22T04:41:28;47.50;41.25;28.00
75960;PMS7003;64644;48.914;2.254;2023-02-22T04:43:53;49.75;41.50;28.00
75960;PMS7003;64644;48.914;2.254;2023-02-22T04:46:18;53.25;44.50;28.00
75960;PMS7003;64644;48.914;2.254;2023-02-22T04:48:44;51.50;41.25;29.00
75960;PMS7003;64644;48.914;2.254;2023-02-22T04:51:09;45.25;40.75;27.75
75960;PMS7003;64644;48.914;2.254;2023-02-22T04:53:35;27.50;25.25;16.50
75960;PMS7003;64644;48.914;2.254;2023-02-22T04:56:00;56.75;47.50;30.00
75960;PMS7003;64644;48.914;2.254;2023-02-22T04:58:26;51.25;42.75;28.50
75960;PMS7003;64644;48.914;2.254;2023-02-22T05:00:52;50.00;42.50;29.25
75960;PMS7003;64644;48.914;2.254;2023-02-22T05:03:17;49.25;41.50;28.00
75960;PMS7003;64644;48.914;2.254;2023-02-22T05:05:43;59.25;46.00;29.25
75960;PMS7003;64644;48.914;2.254;2023-02-22T05:08:08;53.50;45.25;29.25
75960;PMS7003;64644;48.914;2.254;2023-02-22T05:10:34;57.00;46.75;29.25
75960;PMS7003;64644;48.914;2.254;2023-02-22T05:12:59;51.25;42.75;28.25
75960;PMS7003;64644;48.914;2.254;2023-02-22T05:15:25;61.50;49.00;32.00
75960;PMS7003;64644;48.914;2.254;2023-02-22T05:17:50;55.50;46.25;31.00
75960;PMS7003;64644;48.914;2.254;2023-02-22T05:20:27;54.25;44.25;30.75
75960;PMS7003;64644;48.914;2.254;2023-02-22T05:22:55;54.50;45.00;29.25
75960;PMS7003;64644;48.914;2.254;2023-02-22T05:25:22;51.00;44.75;29.25
75960;PMS7003;64644;48.914;2.254;2023-02-22T05:27:52;57.00;44.25;29.50
75960;PMS7003;64644;48.914;2.254;2023-02-22T05:30:22;58.00;47.00;31.75
75960;PMS7003;64644;48.914;2.254;2023-02-22T05:32:52;49.50;41.50;27.00
75960;PMS7003;64644;48.914;2.254;2023-02-22T05:35:18;43.75;39.25;26.75
75960;PMS7003;64644;48.914;2.254;2023-02-22T05:37:45;37.25;28.00;19.00
75960;PMS7003;64644;48.914;2.254;2023-02-22T05:40:11;45.75;40.75;26.25
75960;PMS7003;64644;48.914;2.254;2023-02-22T05:42:38;53.25;44.00;28.00
75960;PMS7003;64644;48.914;2.254;2023-02-22T05:45:06;52.00;43.00;27.50
75960;PMS7003;64644;48.914;2.254;2023-02-22T05:47:33;42.50;39.50;27.00
75960;PMS7003;64644;48.914;2.254;2023-02-22T05:49:58;53.00;45.75;29.25
75960;PMS7003;64644;48.914;2.254;2023-02-22T05:52:24;51.50;42.75;28.00
75960;PMS7003;64644;48.914;2.254;2023-02-22T05:54:49;53.75;44.25;28.00
75960;PMS7003;64644;48.914;2.254;2023-02-22T05:57:15;47.00;41.00;28.00
75960;PMS7003;64644;48.914;2.254;2023-02-22T05:59:40;46.25;40.25;27.75
75960;PMS7003;64644;48.914;2.254;2023-02-22T06:02:07;53.50;44.25;27.75
75960;PMS7003;64644;48.914;2.254;2023-02-22T06:04:32;61.00;45.75;29.00
75960;PMS7003;64644;48.914;2.254;2023-02-22T06:06:57;50.00;43.75;28.00
75960;PMS7003;64644;48.914;2.254;2023-02-22T06:09:23;58.50;46.25;32.25
75960;PMS7003;64644;48.914;2.254;2023-02-22T06:11:48;53.75;45.25;29.50
75960;PMS7003;64644;48.914;2.254;2023-02-22T06:14:14;53.75;45.00;29.25
75960;PMS7003;64644;48.914;2.254;2023-02-22T06:16:39;53.75;42.00;28.00
75960;PMS7003;64644;48.914;2.254;2023-02-22T06:19:04;48.25;42.50;29.25
75960;PMS7003;64644;48.914;2.254;2023-02-22T06:21:30;46.50;39.50;28.50
75960;PMS7003;64644;48.914;2.254;2023-02-22T06:23:55;48.25;42.00;29.00
75960;PMS7003;64644;48.914;2.254;2023-02-22T06:26:21;50.25;41.25;28.00
75960;PMS7003;64644;48.914;2.254;2023-02-22T06:28:47;46.00;41.50;28.00
75960;PMS7003;64644;48.914;2.254;2023-02-22T06:31:12;59.00;46.25;30.25
75960;PMS7003;64644;48.914;2.254;2023-02-22T06:33:38;48.25;41.50;28.00
75960;PMS7003;64644;48.914;2.254;2023-02-22T06:36:03;57.25;47.25;31.00
75960;PMS7003;64644;48.914;2.254;2023-02-22T06:38:29;53.50;44.50;28.50
75960;PMS7003;64644;48.914;2.254;2023-02-22T06:40:55;55.00;42.25;30.50
75960;PMS7003;64644;48.914;2.254;2023-02-22T06:43:21;54.25;42.50;28.00
75960;PMS7003;64644;48.914;2.254;2023-02-22T06:45:49;57.50;45.50;29.25
75960;PMS7003;64644;48.914;2.254;2023-02-22T06:48:16;57.25;46.75;31.25
75960;PMS7003;64644;48.914;2.254;2023-02-22T06:50:41;55.25;46.25;31.25
75960;PMS7003;64644;48.914;2.254;2023-02-22T06:53:07;53.75;45.75;31.00
75960;PMS7003;64644;48.914;2.254;2023-02-22T06:55:33;53.00;46.00;28.00
75960;PMS7003;64644;48.914;2.254;2023-02-22T06:57:59;59.00;47.75;30.25
75960;PMS7003;64644;48.914;2.254;2023-02-22T07:00:27;54.00;45.75;29.25
75960;PMS7003;64644;48.914;2.254;2023-02-22T07:02:53;52.50;45.75;29.25
75960;PMS7003;64644;48.914;2.254;2023-02-22T07:05:20;54.75;44.75;29.50
75960;PMS7003;64644;48.914;2.254;2023-02-22T07:07:47;62.75;46.25;29.25
75960;PMS7003;64644;48.914;2.254;2023-02-22T07:10:18;63.50;51.75;33.00
75960;PMS7003;64644;48.914;2.254;2023-02-22T07:12:45;58.00;45.50;29.00
75960;PMS7003;64644;48.914;2.254;2023-02-22T07:15:13;61.50;49.25;30.25
75960;PMS7003;64644;48.914;2.254;2023-02-22T07:17:41;53.75;45.25;31.00
75960;PMS7003;64644;48.914;2.254;2023-02-22T07:20:07;59.00;48.00;31.00
75960;PMS7003;64644;48.914;2.254;2023-02-22T07:22:33;54.75;47.25;29.25
75960;PMS7003;64644;48.914;2.254;2023-02-22T07:24:58;55.50;45.25;32.75
75960;PMS7003;64644;48.914;2.254;2023-02-22T07:27:24;59.00;48.50;31.75
75960;PMS7003;64644;48.914;2.254;2023-02-22T07:29:49;56.00;45.50;29.00
75960;PMS7003;64644;48.914;2.254;2023-02-22T07:32:15;58.50;49.00;31.25
75960;PMS7003;64644;48.914;2.254;2023-02-22T07:34:40;56.00;46.25;31.75
75960;PMS7003;64644;48.914;2.254;2023-02-22T07:37:06;64.50;48.75;32.50
75960;PMS7003;64644;48.914;2.254;2023-02-22T07:39:32;58.75;46.25;28.00
75960;PMS7003;64644;48.914;2.254;2023-02-22T07:41:58;50.75;43.25;28.75
75960;PMS7003;64644;48.914;2.254;2023-02-22T07:44:24;54.00;44.00;28.25
75960;PMS7003;64644;48.914;2.254;2023-02-22T07:46:49;62.75;50.00;33.25
75960;PMS7003;64644;48.914;2.254;2023-02-22T07:49:15;63.25;49.50;32.50
75960;PMS7003;64644;48.914;2.254;2023-02-22T07:51:40;64.75;49.25;32.25
75960;PMS7003;64644;48.914;2.254;2023-02-22T07:54:06;60.75;49.50;31.00
75960;PMS7003;64644;48.914;2.254;2023-02-22T07:56:31;58.50;49.00;32.50
75960;PMS7003;64644;48.914;2.254;2023-02-22T07:58:57;60.00;49.50;32.00
75960;PMS7003;64644;48.914;2.254;2023-02-22T08:01:22;58.25;48.00;31.75
75960;PMS7003;64644;48.914;2.254;2023-02-22T08:03:48;57.75;48.75;33.00
75960;PMS7003;64644;48.914;2.254;2023-02-22T08:06:14;59.00;49.25;31.25
75960;PMS7003;64644;48.914;2.254;2023-02-22T08:08:39;62.50;46.75;31.75
75960;PMS7003;64644;48.914;2.254;2023-02-22T08:11:04;67.00;54.75;34.00
75960;PMS7003;64644;48.914;2.254;2023-02-22T08:13:30;59.75;49.25;34.00
75960;PMS7003;64644;48.914;2.254;2023-02-22T08:15:55;65.75;52.50;33.25
75960;PMS7003;64644;48.914;2.254;2023-02-22T08:18:21;65.00;53.00;31.75
75960;PMS7003;64644;48.914;2.254;2023-02-22T08:20:48;67.50;54.50;35.00
75960;PMS7003;64644;48.914;2.254;2023-02-22T08:23:16;58.00;47.00;29.00
75960;PMS7003;64644;48.914;2.254;2023-02-22T08:25:43;66.50;52.25;33.25
75960;PMS7003;64644;48.914;2.254;2023-02-22T08:28:10;60.75;51.00;34.50
75960;PMS7003;64644;48.914;2.254;2023-02-22T08:30:37;64.00;51.00;33.75
75960;PMS7003;64644;48.914;2.254;2023-02-22T08:33:04;61.00;49.00;31.50
75960;PMS7003;64644;48.914;2.254;2023-02-22T08:35:30;67.00;50.50;30.75
75960;PMS7003;64644;48.914;2.254;2023-02-22T08:37:58;63.25;51.00;35.00
75960;PMS7003;64644;48.914;2.254;2023-02-22T08:40:26;64.75;51.75;33.50
75960;PMS7003;64644;48.914;2.254;2023-02-22T08:42:52;64.00;53.00;34.00
75960;PMS7003;64644;48.914;2.254;2023-02-22T08:45:19;68.00;51.75;34.50
75960;PMS7003;64644;48.914;2.254;2023-02-22T08:47:44;71.00;54.75;34.00
75960;PMS7003;64644;48.914;2.254;2023-02-22T08:50:14;60.00;51.00;34.00
75960;PMS7003;64644;48.914;2.254;2023-02-22T08:52:51;69.00;52.75;33.50
75960;PMS7003;64644;48.914;2.254;2023-02-22T08:55:19;63.50;51.75;34.00
75960;PMS7003;64644;48.914;2.254;2023-02-22T08:57:48;66.50;53.50;34.75
75960;PMS7003;64644;48.914;2.254;2023-02-22T09:00:18;59.75;47.00;30.00
75960;PMS7003;64644;48.914;2.254;2023-02-22T09:02:49;58.50;48.50;31.25
75960;PMS7003;64644;48.914;2.254;2023-02-22T09:05:19;69.50;53.75;34.00
75960;PMS7003;64644;48.914;2.254;2023-02-22T09:07:44;68.75;54.50;34.75
75960;PMS7003;64644;48.914;2.254;2023-02-22T09:10:10;68.25;55.00;36.25
75960;PMS7003;64644;48.914;2.254;2023-02-22T09:12:39;66.50;54.00;35.00
75960;PMS7003;64644;48.914;2.254;2023-02-22T09:15:05;64.50;53.50;35.50
75960;PMS7003;64644;48.914;2.254;2023-02-22T09:17:30;65.75;53.25;35.00
75960;PMS7003;64644;48.914;2.254;2023-02-22T09:19:56;67.50;53.25;35.00
75960;PMS7003;64644;48.914;2.254;2023-02-22T09:22:21;66.75;53.00;33.75
75960;PMS7003;64644;48.914;2.254;2023-02-22T09:24:47;68.00;55.00;36.00
75960;PMS7003;64644;48.914;2.254;2023-02-22T09:27:12;64.25;52.00;33.75
75960;PMS7003;64644;48.914;2.254;2023-02-22T09:29:37;65.00;53.25;35.00
75960;PMS7003;64644;48.914;2.254;2023-02-22T09:32:03;67.50;53.25;33.50
75960;PMS7003;64644;48.914;2.254;2023-02-22T09:34:29;63.25;52.00;31.50
75960;PMS7003;64644;48.914;2.254;2023-02-22T09:36:59;67.75;52.25;33.00
75960;PMS7003;64644;48.914;2.254;2023-02-22T09:39:24;68.25;55.50;36.25
75960;PMS7003;64644;48.914;2.254;2023-02-22T09:47:15;63.00;51.75;34.25
75960;PMS7003;64644;48.914;2.254;2023-02-22T09:49:55;67.25;55.25;34.25
75960;PMS7003;64644;48.914;2.254;2023-02-22T09:54:51;67.00;54.75;34.50
75960;PMS7003;64644;48.914;2.254;2023-02-22T09:57:33;67.25;54.00;35.25
75960;PMS7003;64644;48.914;2.254;2023-02-22T10:02:50;68.00;53.75;36.00
75960;PMS7003;64644;48.914;2.254;2023-02-22T10:05:25;69.75;53.75;34.00
75960;PMS7003;64644;48.914;2.254;2023-02-22T10:07:58;69.00;53.00;32.75
75960;PMS7003;64644;48.914;2.254;2023-02-22T10:10:31;69.75;56.00;36.00
75960;PMS7003;64644;48.914;2.254;2023-02-22T10:21:11;67.75;54.50;35.50
75960;PMS7003;64644;48.914;2.254;2023-02-22T10:23:49;61.00;51.50;32.50
75960;PMS7003;64644;48.914;2.254;2023-02-22T10:26:21;64.50;52.50;33.25
75960;PMS7003;64644;48.914;2.254;2023-02-22T10:28:53;70.00;52.50;33.25
75960;PMS7003;64644;48.914;2.254;2023-02-22T10:31:32;72.25;55.25;36.00
75960;PMS7003;64644;48.914;2.254;2023-02-22T10:34:01;66.25;50.50;32.00
75960;PMS7003;64644;48.914;2.254;2023-02-22T10:36:29;64.25;54.50;35.75
75960;PMS7003;64644;48.914;2.254;2023-02-22T10:38:59;62.75;51.50;34.25
75960;PMS7003;64644;48.914;2.254;2023-02-22T10:41:36;25.25;19.25;0.00
75960;PMS7003;64644;48.914;2.254;2023-02-22T10:44:08;72.75;56.50;36.00
75960;PMS7003;64644;48.914;2.254;2023-02-22T10:46:34;70.25;55.50;34.75
75960;PMS7003;64644;48.914;2.254;2023-02-22T10:49:01;67.75;53.00;34.50
75960;PMS7003;64644;48.914;2.254;2023-02-22T10:51:31;65.00;50.50;35.25
75960;PMS7003;64644;48.914;2.254;2023-02-22T10:53:58;70.00;55.75;35.75
75960;PMS7003;64644;48.914;2.254;2023-02-22T10:56:29;71.25;56.75;35.00
75960;PMS7003;64644;48.914;2.254;2023-02-22T11:01:26;69.25;56.50;36.25
75960;PMS7003;64644;48.914;2.254;2023-02-22T11:06:38;63.75;51.50;33.00
75960;PMS7003;64644;48.914;2.254;2023-02-22T11:09:06;70.00;56.50;35.50
75960;PMS7003;64644;48.914;2.254;2023-02-22T11:11:34;70.50;57.50;35.75
75960;PMS7003;64644;48.914;2.254;2023-02-22T11:14:00;66.50;55.00;33.25
75960;PMS7003;64644;48.914;2.254;2023-02-22T11:21:48;67.50;55.00;35.00
75960;PMS7003;64644;48.914;2.254;2023-02-22T11:24:17;74.50;56.50;34.50
75960;PMS7003;64644;48.914;2.254;2023-02-22T11:26:47;71.00;56.75;35.75
75960;PMS7003;64644;48.914;2.254;2023-02-22T11:32:17;71.75;56.25;34.50
75960;PMS7003;64644;48.914;2.254;2023-02-22T11:34:46;65.00;53.25;33.50
75960;PMS7003;64644;48.914;2.254;2023-02-22T11:37:33;65.50;51.75;31.00
75960;PMS7003;64644;48.914;2.254;2023-02-22T11:42:46;73.00;56.75;36.00
75960;PMS7003;64644;48.914;2.254;2023-02-22T11:45:55;72.50;57.00;35.25
75960;PMS7003;64644;48.914;2.254;2023-02-22T11:48:27;69.25;55.00;34.00
75960;PMS7003;64644;48.914;2.254;2023-02-22T12:05:13;69.50;55.00;35.00
75960;PMS7003;64644;48.914;2.254;2023-02-22T12:13:36;62.00;50.25;31.00
75960;PMS7003;64644;48.914;2.254;2023-02-22T12:20:22;65.00;53.25;34.00
75960;PMS7003;64644;48.914;2.254;2023-02-22T12:24:55;55.00;43.75;29.50
75960;PMS7003;64644;48.914;2.254;2023-02-22T12:27:27;59.50;49.50;29.75
75960;PMS7003;64644;48.914;2.254;2023-02-22T12:30:04;63.00;47.50;28.25
75960;PMS7003;64644;48.914;2.254;2023-02-22T12:32:47;57.50;45.75;30.00
75960;PMS7003;64644;48.914;2.254;2023-02-22T12:43:38;57.00;45.00;28.00
75960;PMS7003;64644;48.914;2.254;2023-02-22T12:54:37;62.00;49.00;30.00
75960;PMS7003;64644;48.914;2.254;2023-02-22T13:00:21;55.75;46.25;29.25
75960;PMS7003;64644;48.914;2.254;2023-02-22T13:05:21;55.50;46.50;31.00
75960;PMS7003;64644;48.914;2.254;2023-02-22T13:07:54;61.75;50.00;31.00
75960;PMS7003;64644;48.914;2.254;2023-02-22T13:13:58;56.75;43.50;28.25
75960;PMS7003;64644;48.914;2.254;2023-02-22T13:16:17;56.75;45.75;29.25
75960;PMS7003;64644;48.914;2.254;2023-02-22T13:18:51;57.25;48.00;28.50
75960;PMS7003;64644;48.914;2.254;2023-02-22T13:21:28;60.25;49.75;31.00
75960;PMS7003;64644;48.914;2.254;2023-02-22T13:24:07;58.75;49.00;29.25
75960;PMS7003;64644;48.914;2.254;2023-02-22T13:26:59;55.25;44.50;28.00
75960;PMS7003;64644;48.914;2.254;2023-02-22T13:37:58;51.25;42.50;29.00
75960;PMS7003;64644;48.914;2.254;2023-02-22T13:51:45;61.00;47.50;30.50
75960;PMS7003;64644;48.914;2.254;2023-02-22T13:56:42;58.50;47.25;31.50
75960;PMS7003;64644;48.914;2.254;2023-02-22T14:01:58;60.00;48.75;29.25
75960;PMS7003;64644;48.914;2.254;2023-02-22T14:06:54;64.25;49.00;32.25
75960;PMS7003;64644;48.914;2.254;2023-02-22T14:17:43;60.25;50.25;29.50
75960;PMS7003;64644;48.914;2.254;2023-02-22T14:22:40;64.00;48.50;30.00
75960;PMS7003;64644;48.914;2.254;2023-02-22T14:28:49;52.00;43.50;26.00
75960;PMS7003;64644;48.914;2.254;2023-02-22T14:31:10;55.50;45.00;28.75
75960;PMS7003;64644;48.914;2.254;2023-02-22T14:36:23;53.25;45.25;29.75
75960;PMS7003;64644;48.914;2.254;2023-02-22T14:38:52;60.50;47.25;30.25
75960;PMS7003;64644;48.914;2.254;2023-02-22T14:41:22;59.50;50.75;30.50
75960;PMS7003;64644;48.914;2.254;2023-02-22T14:43:54;60.75;49.25;31.00
75960;PMS7003;64644;48.914;2.254;2023-02-22T14:46:22;63.25;51.75;31.25
75960;PMS7003;64644;48.914;2.254;2023-02-22T14:48:53;39.75;37.00;27.00
75960;PMS7003;64644;48.914;2.254;2023-02-22T14:51:26;58.50;43.75;29.25
75960;PMS7003;64644;48.914;2.254;2023-02-22T14:53:58;64.75;51.50;31.75
75960;PMS7003;64644;48.914;2.254;2023-02-22T14:56:32;59.75;50.75;31.00
75960;PMS7003;64644;48.914;2.254;2023-02-22T14:59:16;57.00;48.50;30.25
75960;PMS7003;64644;48.914;2.254;2023-02-22T15:01:42;63.25;45.25;29.75
75960;PMS7003;64644;48.914;2.254;2023-02-22T15:04:21;49.50;45.00;30.50
75960;PMS7003;64644;48.914;2.254;2023-02-22T15:06:49;51.75;45.25;30.00
75960;PMS7003;64644;48.914;2.254;2023-02-22T15:09:16;56.75;45.50;30.50
75960;PMS7003;64644;48.914;2.254;2023-02-22T15:14:33;49.00;41.25;28.00
75960;PMS7003;64644;48.914;2.254;2023-02-22T15:17:22;58.50;46.75;29.50
75960;PMS7003;64644;48.914;2.254;2023-02-22T15:19:50;42.50;40.75;30.25
75960;PMS7003;64644;48.914;2.254;2023-02-22T15:22:24;53.25;45.50;30.25
75960;PMS7003;64644;48.914;2.254;2023-02-22T15:24:56;52.25;43.25;28.00
75960;PMS7003;64644;48.914;2.254;2023-02-22T15:27:25;55.75;44.75;27.00
75960;PMS7003;64644;48.914;2.254;2023-02-22T15:29:55;50.75;44.75;28.25
75960;PMS7003;64644;48.914;2.254;2023-02-22T15:32:31;52.75;44.75;28.00
75960;PMS7003;64644;48.914;2.254;2023-02-22T15:37:44;44.00;41.25;27.25
75960;PMS7003;64644;48.914;2.254;2023-02-22T15:40:14;38.25;34.00;21.75
75960;PMS7003;64644;48.914;2.254;2023-02-22T15:42:49;39.75;37.75;24.75
75960;PMS7003;64644;48.914;2.254;2023-02-22T15:45:22;36.50;35.75;22.75
75960;PMS7003;64644;48.914;2.254;2023-02-22T15:47:52;43.50;38.50;22.75
75960;PMS7003;64644;48.914;2.254;2023-02-22T15:52:55;37.00;34.00;22.25
75960;PMS7003;64644;48.914;2.254;2023-02-22T15:55:27;37.50;34.50;23.75
75960;PMS7003;64644;48.914;2.254;2023-02-22T15:57:57;33.50;28.00;17.50
75960;PMS7003;64644;48.914;2.254;2023-02-22T16:03:02;39.25;33.00;21.75
75960;PMS7003;64644;48.914;2.254;2023-02-22T16:05:37;31.00;31.00;19.25
75960;PMS7003;64644;48.914;2.254;2023-02-22T16:08:24;36.00;31.75;20.25
75960;PMS7003;64644;48.914;2.254;2023-02-22T16:10:58;35.75;31.50;20.00
75960;PMS7003;64644;48.914;2.254;2023-02-22T16:13:32;34.00;31.25;21.00
75960;PMS7003;64644;48.914;2.254;2023-02-22T16:16:03;31.75;31.50;20.00
75960;PMS7003;64644;48.914;2.254;2023-02-22T16:18:51;32.75;32.25;19.75
75960;PMS7003;64644;48.914;2.254;2023-02-22T16:21:18;33.75;33.50;22.75
75960;PMS7003;64644;48.914;2.254;2023-02-22T16:28:55;37.00;32.75;18.25
75960;PMS7003;64644;48.914;2.254;2023-02-22T16:31:23;32.00;29.00;20.00
75960;PMS7003;64644;48.914;2.254;2023-02-22T16:33:51;31.50;28.00;19.25
75960;PMS7003;64644;48.914;2.254;2023-02-22T16:36:18;37.75;33.00;21.50
75960;PMS7003;64644;48.914;2.254;2023-02-22T16:38:44;38.25;35.25;22.75
75960;PMS7003;64644;48.914;2.254;2023-02-22T16:41:12;43.00;38.50;25.25
75960;PMS7003;64644;48.914;2.254;2023-02-22T16:43:43;39.00;37.75;24.50
75960;PMS7003;64644;48.914;2.254;2023-02-22T16:46:14;43.25;40.75;26.50
75960;PMS7003;64644;48.914;2.254;2023-02-22T16:48:42;46.75;41.25;27.00
75960;PMS7003;64644;48.914;2.254;2023-02-22T16:51:20;49.25;41.00;25.50
75960;PMS7003;64644;48.914;2.254;2023-02-22T16:53:48;42.00;37.25;25.25
75960;PMS7003;64644;48.914;2.254;2023-02-22T16:56:15;36.75;34.00;24.00
75960;PMS7003;64644;48.914;2.254;2023-02-22T16:58:44;47.75;40.25;27.00
75960;PMS7003;64644;48.914;2.254;2023-02-22T17:01:11;40.25;38.25;25.25
75960;PMS7003;64644;48.914;2.254;2023-02-22T17:03:37;44.50;38.25;25.25